Flight Track Log - Related Links

Times and Time Zones

All times are in EDT time to prevent confusion due to time zone crossing. See the ASQ6021 flight status page for this flight to view local times or setup timezone preferences in your user account.

Time Position Orientation Groundspeed Altitude Reporting Facility
EDT Latitude Longitude Course Direction KTS MPH feet Rate Location/Type
Thu 06:11:45 PM 41.9167 -87.8833 74° East 191 220 3,100  Level Chicago TRACON
Thu 06:16:30 PM 42.0056 -87.4608 69° East 280 322 10,900 1,530 Climbing Chicago Center
Thu 06:17:30 PM 42.0392 -87.3453 70° East 301 346 11,900 1,450 Climbing Chicago Center
Thu 06:18:30 PM 42.0742 -87.2156 71° East 337 388 13,800 1,850 Climbing Chicago Center
Thu 06:19:30 PM 42.1072 -87.0856 83° East 351 404 15,600 1,850 Climbing Chicago Center
Thu 06:20:30 PM 42.1189 -86.9481 87° East 357 411 17,500 1,600 Climbing Chicago Center
Thu 06:21:30 PM 42.1242 -86.8050 88° East 372 428 18,800 1,400 Climbing Chicago Center
Thu 06:22:30 PM 42.1275 -86.6678 87° East 387 445 20,300 1,550 Climbing Chicago Center
Thu 06:23:30 PM 42.1339 -86.5050 86° East 393 452 21,900 1,600 Climbing Chicago Center
Thu 06:24:30 PM 42.1406 -86.3592 89° East 398 458 23,500 1,500 Climbing Chicago Center
Thu 06:25:30 PM 42.1428 -86.2106 89° East 392 451 24,900 750 Climbing Chicago Center
Thu 06:26:30 PM 42.1447 -86.0536 90° East 412 474 25,000 50 Climbing Chicago Center
Thu 06:27:30 PM 42.1439 -85.8883 91° East 423 487 25,000  Level Chicago Center
Thu 06:28:30 PM 42.1408 -85.7175 91° East 437 503 25,000  Level Chicago Center
Thu 06:29:30 PM 42.1394 -85.5469 91° East 445 512 25,000  Level Chicago Center
Thu 06:30:30 PM 42.1383 -85.3928 91° East 450 518 25,000  Level Chicago Center
Thu 06:33:17 PM 42.1328 -84.9067 91° East 453 521 25,000  Level Cleveland Center
Thu 06:34:17 PM 42.1294 -84.7161 92° East 458 527 25,000  Level Cleveland Center
Thu 06:35:17 PM 42.1253 -84.5367 87° East 464 534 25,000  Level Cleveland Center
Thu 06:36:17 PM 42.1311 -84.3661 87° East 464 534 25,000  Level Cleveland Center
Thu 06:37:17 PM 42.1361 -84.2122 89° East 458 527 25,000  Level Cleveland Center
Thu 06:38:17 PM 42.1372 -84.0361 89° East 458 527 25,000  Level Cleveland Center
Thu 06:39:17 PM 42.1403 -83.8653 89° East 453 521 25,000  Level Cleveland Center
Thu 06:40:17 PM 42.1431 -83.6917 89° East 459 528 25,000  Level Cleveland Center
Thu 06:41:17 PM 42.1458 -83.4986 88° East 459 528 25,000  Level Cleveland Center
Thu 06:42:17 PM 42.1503 -83.3222 90° East 459 528 25,000  Level Cleveland Center
Thu 06:43:17 PM 42.1497 -83.1656 88° East 459 528 25,000  Level Cleveland Center
Thu 06:44:17 PM 42.1536 -82.9864 88° East 464 534 25,000  Level Cleveland Center
Thu 06:45:17 PM 42.1572 -82.8100 91° East 464 534 25,000  Level Cleveland Center
Thu 06:46:17 PM 42.1542 -82.6333 89° East 469 540 25,000  Level Cleveland Center
Thu 06:47:17 PM 42.1572 -82.4569 90° East 469 540 25,000  Level Cleveland Center
Thu 06:48:17 PM 42.1581 -82.2750 90° East 474 545 25,000  Level Cleveland Center
Thu 06:49:17 PM 42.1583 -82.0986 89° East 474 545 25,000  Level Cleveland Center
Thu 06:50:17 PM 42.1606 -81.9222 89° East 474 545 25,000  Level Cleveland Center
Thu 06:51:17 PM 42.1625 -81.7456 91° East 474 545 25,000  Level Cleveland Center
Thu 06:52:17 PM 42.1600 -81.5522 90° East 474 545 25,000  Level Cleveland Center
Thu 06:53:17 PM 42.1594 -81.3731 89° East 474 545 25,000  Level Cleveland Center
Thu 06:54:17 PM 42.1606 -81.1939 91° East 480 552 25,000  Level Cleveland Center
Thu 06:55:17 PM 42.1592 -81.0117 91° East 475 547 25,000  Level Cleveland Center
Thu 06:56:17 PM 42.1578 -80.8353 86° East 470 541 25,000  Level Cleveland Center
Thu 06:57:17 PM 42.1664 -80.6561 72° East 475 547 25,000  Level Cleveland Center
Thu 06:58:17 PM 42.2058 -80.4906 72° East 470 541 25,000  Level Cleveland Center
Thu 06:59:17 PM 42.2472 -80.3194 73° East 475 547 25,000  Level Cleveland Center
Thu 07:00:16 PM 42.2822 -80.1650 72° East 480 552 25,000  Level Cleveland Center
Thu 07:01:17 PM 42.3233 -79.9964 72° East 480 552 25,000  Level Cleveland Center
Thu 07:02:17 PM 42.3639 -79.8272 72° East 473 544 25,000  Level Cleveland Center
Thu 07:03:17 PM 42.4044 -79.6553 73° East 473 544 25,000  Level Cleveland Center
Thu 07:04:18 PM 42.4444 -79.4803 72° East 478 550 25,000 -800 Level Cleveland Center
Thu 07:05:17 PM 42.4906 -79.2908 50° Northeast 483 556 23,400 -1,966 Descending Cleveland Center
Thu 07:06:17 PM 42.5622 -79.1767 47° Northeast 451 519 21,100 -2,550 Descending Cleveland Center
Thu 07:07:17 PM 42.6439 -79.0561 45° Northeast 432 497 18,300 -2,800 Descending Cleveland Center
Thu 07:08:17 PM 42.7278 -78.9411 47° Northeast 401 461 15,500 -2,700 Descending Cleveland Center
Thu 07:09:17 PM 42.7992 -78.8372 47° Northeast 383 441 12,900 -2,250 Descending Cleveland Center
Thu 07:10:17 PM 42.8644 -78.7419 47° Northeast 371 427 11,000 -1,212 Descending Cleveland Center
Thu 07:10:56 PM 42.9167 -78.6667 69° East 351 404 10,900 -652 Descending Buffalo TRACON
Thu 07:11:49 PM 42.9450 -78.5667 74° East 365 420 10,000 -474 Descending Cleveland Center
Thu 07:12:50 PM 42.9717 -78.4353 78° East 352 405 10,000 -595 Level Cleveland Center
Thu 07:13:50 PM 42.9883 -78.3269 74° East 294 338 8,800 -1,388 Descending Cleveland Center
Thu 07:14:51 PM 43.0114 -78.2181 75° East 277 319 7,200 -934 Descending Cleveland Center
Thu 07:15:52 PM 43.0300 -78.1236 64° Northeast 262 302 6,900 -942 Descending Cleveland Center
Thu 07:16:52 PM 43.0617 -78.0342 65° Northeast 267 307 5,300 -1,636 Descending Cleveland Center
Thu 07:17:53 PM 43.0928 -77.9419 72° East 260 299 3,600 -1,388 Descending Cleveland Center
Thu 07:18:53 PM 43.1136 -77.8531 85° East 241 277 2,500 -694 Descending Cleveland Center
Thu 07:19:54 PM 43.1181 -77.7789 85° East 198 228 2,200 -590 Descending Cleveland Center
Thu 07:20:55 PM 43.1211 -77.7275 85° East 145 167 1,300 -885 Descending Cleveland Center

Login

Don't have an account? Register now (free) for customized features, flight alerts, and more!